TAF Text Data
IDs:
Format:
Raw Decoded Include METAR

Data at: 0123 UTC 29 Nov 2020

KBHM 282338Z 2900/2924 36005KT P6SM OVC250
  FM291500 13007KT P6SM OVC035
  PROB30 2915/2918 4SM SHRA BR OVC025
  FM291800 13006KT 6SM SHRA BR OVC017
  PROB30 2918/2919 4SM TSRA BR OVC008CB
  FM291900 11006KT 6SM SHRA BR OVC008
  PROB30 2919/2920 4SM TSRA BR OVC004CB
  FM292000 11007KT 5SM SHRA BR OVC005
  PROB30 2920/2924 2SM TSRA BR OVC003CB